Time;durP1;ratioP1;P1;durP2;ratioP2;P2;SDS_P1;SDS_P2;PMS_P1;PMS_P2;Temp;Humidity;BMP_temperature;BMP_pressure;BME280_temperature;BME280_humidity;BME280_pressure;Samples;Min_cycle;Max_cycle;Signal;HPM_P1;HPM_P2
2023/11/03 00:00:19;;;;;;;6.20;4.87;;;;;;;-0.64;100.00;100858.47;5034543;28;20276;-65
2023/11/03 00:02:44;;;;;;;5.55;4.95;;;;;;;-0.62;100.00;100852.22;5034185;28;20512;-65
2023/11/03 00:05:14;;;;;;;13.13;7.17;;;;;;;-0.49;100.00;100869.84;5034255;28;20041;-65
2023/11/03 00:07:40;;;;;;;9.47;5.30;;;;;;;-0.53;100.00;100877.03;5033875;28;20041;-65
2023/11/03 00:10:09;;;;;;;8.80;6.00;;;;;;;-0.71;100.00;100837.09;5033755;28;20264;-66
2023/11/03 00:12:36;;;;;;;9.30;5.80;;;;;;;-0.65;100.00;100849.78;5034129;28;20746;-65
2023/11/03 00:15:02;;;;;;;5.93;5.03;;;;;;;-0.53;100.00;100861.34;5032533;28;20041;-66
2023/11/03 00:17:30;;;;;;;8.45;5.90;;;;;;;-0.56;100.00;100856.28;5033956;28;20272;-67
2023/11/03 00:19:55;;;;;;;6.00;4.97;;;;;;;-0.53;100.00;100871.81;5033936;28;20068;-66
2023/11/03 00:22:23;;;;;;;8.33;5.43;;;;;;;-0.63;100.00;100844.47;5032068;28;20065;-66
2023/11/03 00:24:49;;;;;;;6.30;5.60;;;;;;;-0.47;100.00;100870.59;5033409;28;20041;-64
2023/11/03 00:27:14;;;;;;;5.97;4.87;;;;;;;-0.62;100.00;100851.38;5033631;28;20271;-67
2023/11/03 00:29:41;;;;;;;6.33;4.63;;;;;;;-0.59;100.00;100851.22;5033751;28;20040;-65
2023/11/03 00:32:06;;;;;;;6.27;4.63;;;;;;;-0.36;100.00;100889.97;5033585;28;20033;-65
2023/11/03 00:34:32;;;;;;;5.83;5.00;;;;;;;-0.30;100.00;100873.03;5033719;28;20324;-64
2023/11/03 00:36:58;;;;;;;11.97;5.10;;;;;;;-0.29;100.00;100868.66;5032862;28;20030;-65
2023/11/03 00:39:24;;;;;;;5.37;4.60;;;;;;;-0.20;100.00;100889.06;5032230;28;20448;-64
2023/11/03 00:41:51;;;;;;;5.93;4.80;;;;;;;-0.09;100.00;100897.13;5039442;28;20029;-64
2023/11/03 00:44:17;;;;;;;7.00;4.77;;;;;;;-0.05;100.00;100903.84;5039817;28;20300;-69
2023/11/03 00:46:44;;;;;;;5.50;4.20;;;;;;;0.08;100.00;100920.53;5044692;28;20345;-63
2023/11/03 00:49:11;;;;;;;4.97;3.90;;;;;;;0.12;100.00;100919.41;5047779;28;20303;-65
2023/11/03 00:51:37;;;;;;;5.83;4.50;;;;;;;0.24;100.00;100931.75;5048375;28;20278;-64
2023/11/03 00:54:03;;;;;;;4.47;4.07;;;;;;;-0.20;100.00;100868.13;5044455;28;20269;-65
2023/11/03 00:56:30;;;;;;;6.73;3.90;;;;;;;0.12;100.00;100916.78;5033050;28;20555;-65
2023/11/03 00:58:56;;;;;;;5.10;3.80;;;;;;;0.08;100.00;100932.78;5033170;28;20288;-68
2023/11/03 01:01:21;;;;;;;6.20;5.07;;;;;;;-0.02;100.00;100938.53;5032917;28;20732;-66
2023/11/03 01:03:48;;;;;;;7.93;4.17;;;;;;;0.06;100.00;100938.13;5032962;28;20034;-64
2023/11/03 01:06:13;;;;;;;5.33;4.57;;;;;;;0.04;100.00;100924.28;5032758;28;20041;-66
2023/11/03 01:08:39;;;;;;;4.20;3.73;;;;;;;-0.15;100.00;100884.41;5032703;28;20279;-65
2023/11/03 01:11:09;;;;;;;5.37;4.40;;;;;;;0.19;100.00;100949.53;5033221;28;20033;-69
2023/11/03 01:13:39;;;;;;;4.70;4.20;;;;;;;0.10;100.00;100949.25;5033196;28;20080;-66
2023/11/03 01:16:09;;;;;;;4.93;3.90;;;;;;;-0.01;100.00;100958.56;5032773;28;20284;-66
2023/11/03 01:18:35;;;;;;;4.63;4.00;;;;;;;-0.43;100.00;100893.88;5032608;28;20356;-66
2023/11/03 01:21:12;;;;;;;5.07;4.50;;;;;;;-0.03;100.00;100954.34;5032202;28;20268;-66
2023/11/03 01:23:42;;;;;;;4.30;3.37;;;;;;;-0.08;100.00;100956.41;5032657;28;20287;-67
2023/11/03 01:26:10;;;;;;;3.97;3.57;;;;;;;-0.25;100.00;100933.00;5032450;28;20387;-65
2023/11/03 01:28:36;;;;;;;5.40;4.23;;;;;;;-0.40;100.00;100903.31;5032528;28;20322;-66
2023/11/03 01:31:04;;;;;;;4.33;3.73;;;;;;;-0.38;100.00;100904.91;5033077;28;20378;-65
2023/11/03 01:33:34;;;;;;;4.27;3.87;;;;;;;-0.02;100.00;100946.41;5033494;28;20291;-68
2023/11/03 01:36:04;;;;;;;4.23;3.70;;;;;;;0.16;100.00;100980.31;5032874;28;20770;-64
2023/11/03 01:38:31;;;;;;;4.47;3.47;;;;;;;0.16;100.00;100975.91;5033160;28;20331;-64
2023/11/03 01:41:00;;;;;;;3.20;2.90;;;;;;;0.23;100.00;100987.69;5032569;28;20272;-64
2023/11/03 01:43:27;;;;;;;3.10;2.77;;;;;;;0.24;100.00;100984.13;5032050;28;20339;-66
2023/11/03 01:45:52;;;;;;;2.90;2.40;;;;;;;0.20;100.00;100966.94;5031796;28;20296;-65
2023/11/03 01:48:18;;;;;;;2.93;2.60;;;;;;;0.16;100.00;100965.44;5031567;28;20268;-65
2023/11/03 01:50:44;;;;;;;2.87;2.60;;;;;;;0.02;100.00;100941.00;5030720;28;20057;-65
2023/11/03 01:53:15;;;;;;;8.43;4.13;;;;;;;0.11;100.00;100977.97;5032678;28;20264;-65
2023/11/03 01:55:40;;;;;;;3.53;2.87;;;;;;;0.09;100.00;100979.81;5032126;28;20056;-66
2023/11/03 01:58:07;;;;;;;3.20;2.63;;;;;;;0.07;100.00;100970.38;5030769;28;20272;-66
2023/11/03 02:00:33;;;;;;;3.97;3.10;;;;;;;0.08;100.00;100982.53;5031649;28;20426;-66
2023/11/03 02:02:59;;;;;;;3.33;3.00;;;;;;;0.04;100.00;100965.31;5031571;28;20404;-66
2023/11/03 02:05:25;;;;;;;3.13;2.93;;;;;;;0.03;100.00;100972.34;5031839;28;20292;-65
2023/11/03 02:07:50;;;;;;;4.30;3.40;;;;;;;-0.01;100.00;100974.25;5031792;28;20064;-66
2023/11/03 02:10:16;;;;;;;4.20;3.10;;;;;;;-0.02;100.00;100977.81;5031811;28;20041;-66
2023/11/03 02:12:42;;;;;;;3.00;2.70;;;;;;;0.03;100.00;100985.44;5031689;28;20037;-64
2023/11/03 02:15:08;;;;;;;3.20;2.90;;;;;;;0.02;100.00;100986.38;5030854;28;20041;-66
2023/11/03 02:17:35;;;;;;;3.07;2.87;;;;;;;0.03;100.00;100995.91;5031914;28;20384;-65
2023/11/03 02:20:21;;;;;;;2.93;2.73;;;;;;;0.04;100.00;100984.50;5030704;28;20303;-66
2023/11/03 02:22:55;;;;;;;7.70;2.97;;;;;;;0.08;100.00;100980.75;5031162;28;20288;-65
2023/11/03 02:25:21;;;;;;;3.30;2.47;;;;;;;0.17;100.00;100993.31;5031383;28;20354;-66
2023/11/03 02:27:47;;;;;;;4.97;3.23;;;;;;;0.19;100.00;100991.44;5031241;28;20276;-64
2023/11/03 02:30:13;;;;;;;3.50;3.20;;;;;;;0.26;100.00;101008.47;5031460;28;20079;-66
2023/11/03 02:32:39;;;;;;;3.73;3.10;;;;;;;0.22;100.00;101000.88;5031730;28;20129;-66
2023/11/03 02:35:05;;;;;;;3.50;3.20;;;;;;;0.19;100.00;101001.91;5031485;28;20351;-64
2023/11/03 02:37:31;;;;;;;3.30;3.00;;;;;;;0.15;100.00;100997.78;5033769;28;20039;-66
2023/11/03 02:39:57;;;;;;;3.70;3.40;;;;;;;0.27;100.00;101002.28;5031254;28;20260;-65
2023/11/03 02:42:22;;;;;;;4.13;3.57;;;;;;;0.29;100.00;100997.00;5029728;28;20033;-65
2023/11/03 02:44:49;;;;;;;4.33;3.70;;;;;;;0.33;100.00;101008.13;5031229;28;20035;-67
2023/11/03 02:47:14;;;;;;;5.57;3.40;;;;;;;0.21;100.00;101000.03;5033302;28;20034;-65
2023/11/03 02:49:40;;;;;;;5.60;3.90;;;;;;;0.14;100.00;100990.03;5036961;28;20279;-68
2023/11/03 02:52:05;;;;;;;5.43;3.90;;;;;;;0.28;100.00;101006.59;5031136;28;20042;-66
2023/11/03 02:54:31;;;;;;;4.83;3.87;;;;;;;0.41;100.00;101022.44;5031111;28;20056;-68
2023/11/03 02:56:57;;;;;;;7.70;4.30;;;;;;;0.45;100.00;101025.72;5029754;28;20029;-66
2023/11/03 02:59:23;;;;;;;5.80;3.90;;;;;;;0.36;100.00;101007.94;5031306;28;20073;-66
2023/11/03 03:01:48;;;;;;;5.03;4.33;;;;;;;0.41;100.00;101016.38;5034654;28;20083;-66
2023/11/03 03:04:14;;;;;;;6.13;4.93;;;;;;;0.33;100.00;101023.84;5035224;28;20260;-67
2023/11/03 03:06:45;;;;;;;7.70;4.70;;;;;;;-0.07;100.00;100968.56;5035278;28;20029;-66
2023/11/03 03:09:12;;;;;;;6.00;4.73;;;;;;;-0.04;100.00;100989.31;5033822;28;20029;-67
2023/11/03 03:11:38;;;;;;;8.20;4.87;;;;;;;0.33;100.00;101042.19;5035074;28;20330;-66
2023/11/03 03:14:04;;;;;;;7.87;4.67;;;;;;;0.28;100.00;101022.31;5034952;28;20359;-65
2023/11/03 03:16:30;;;;;;;7.47;4.83;;;;;;;0.28;100.00;101038.03;5036160;28;20345;-65
2023/11/03 03:18:55;;;;;;;6.17;4.77;;;;;;;0.20;100.00;101024.56;5039241;28;20044;-67
2023/11/03 03:21:21;;;;;;;8.73;4.97;;;;;;;0.18;100.00;101036.91;5036960;28;20037;-66
2023/11/03 03:23:47;;;;;;;5.93;4.10;;;;;;;0.16;100.00;101023.06;5036337;28;20057;-67
2023/11/03 03:26:12;;;;;;;5.87;4.40;;;;;;;0.21;100.00;101046.34;5035453;28;20663;-67
2023/11/03 03:28:38;;;;;;;7.20;4.50;;;;;;;0.07;100.00;101034.06;5035428;28;20523;-64
2023/11/03 03:31:04;;;;;;;6.30;4.57;;;;;;;0.04;100.00;101036.03;5035073;28;20413;-64
2023/11/03 03:33:30;;;;;;;4.67;3.87;;;;;;;0.19;100.00;101054.28;5033796;28;20064;-65
2023/11/03 03:35:56;;;;;;;5.60;4.13;;;;;;;0.25;100.00;101043.44;5034907;28;20302;-65
2023/11/03 03:38:22;;;;;;;6.83;4.60;;;;;;;0.09;100.00;101019.09;5034072;28;20072;-67
2023/11/03 03:40:48;;;;;;;4.77;4.27;;;;;;;-0.16;100.00;100990.03;5035619;28;20040;-65
2023/11/03 03:43:14;;;;;;;6.87;4.70;;;;;;;0.22;100.00;101046.25;5036035;28;20268;-65
2023/11/03 03:45:39;;;;;;;8.57;4.03;;;;;;;0.21;100.00;101047.19;5037631;28;20048;-66
2023/11/03 03:48:05;;;;;;;12.00;4.40;;;;;;;0.17;100.00;101045.69;5035650;28;20044;-64
2023/11/03 03:50:30;;;;;;;7.37;4.00;;;;;;;0.11;100.00;101034.72;5042840;28;20048;-65
2023/11/03 03:52:56;;;;;;;5.47;4.83;;;;;;;0.02;100.00;101023.03;5043118;28;20416;-65
2023/11/03 03:55:21;;;;;;;5.23;3.97;;;;;;;0.10;100.00;101036.50;5041095;28;20171;-66
2023/11/03 03:57:49;;;;;;;5.73;4.77;;;;;;;-0.01;100.00;101020.56;5041829;28;20073;-66
2023/11/03 04:00:15;;;;;;;5.53;4.20;;;;;;;0.03;100.00;101021.25;5040669;28;20456;-63
2023/11/03 04:02:41;;;;;;;4.90;3.90;;;;;;;0.03;100.00;101011.63;5037795;28;20268;-65
2023/11/03 04:05:07;;;;;;;5.07;3.50;;;;;;;0.18;100.00;101036.91;5046646;28;20314;-66
2023/11/03 04:07:32;;;;;;;5.57;3.63;;;;;;;0.12;100.00;101032.03;5050817;28;20503;-65
2023/11/03 04:09:58;;;;;;;6.00;4.23;;;;;;;0.03;100.00;101016.84;5055085;28;20272;-67
2023/11/03 04:12:24;;;;;;;4.20;3.40;;;;;;;0.03;100.00;101014.22;5051254;28;20642;-66
2023/11/03 04:14:49;;;;;;;4.17;3.50;;;;;;;0.00;100.00;101006.56;5053154;28;20137;-66
2023/11/03 04:17:15;;;;;;;4.73;3.63;;;;;;;0.20;100.00;101028.94;5050370;28;20052;-68
2023/11/03 04:19:40;;;;;;;4.00;3.33;;;;;;;0.33;100.00;101050.88;5045784;28;20037;-67
2023/11/03 04:22:06;;;;;;;6.10;3.40;;;;;;;0.33;100.00;101052.66;5036779;28;20057;-66
2023/11/03 04:24:31;;;;;;;3.67;3.17;;;;;;;0.25;100.00;101037.38;5033412;28;20064;-67
2023/11/03 04:26:57;;;;;;;4.60;3.20;;;;;;;0.20;100.00;101032.41;5033768;28;20045;-65
2023/11/03 04:29:23;;;;;;;3.77;3.37;;;;;;;0.12;100.00;101039.88;5034427;28;20488;-66
2023/11/03 04:31:49;;;;;;;3.73;3.13;;;;;;;0.20;100.00;101057.75;5034225;28;20512;-65
2023/11/03 04:34:15;;;;;;;3.67;3.17;;;;;;;0.20;100.00;101045.50;5032411;28;20049;-65
2023/11/03 04:36:41;;;;;;;6.10;3.40;;;;;;;0.14;100.00;101035.38;5033305;28;20275;-65
2023/11/03 04:39:06;;;;;;;7.53;3.27;;;;;;;-0.07;100.00;101015.69;5033363;28;20751;-66
2023/11/03 04:41:32;;;;;;;6.13;3.80;;;;;;;0.24;100.00;101041.78;5033658;28;20087;-67
2023/11/03 04:43:57;;;;;;;7.47;3.50;;;;;;;0.25;100.00;101043.44;5033176;28;20204;-65
2023/11/03 04:46:23;;;;;;;4.57;3.23;;;;;;;0.39;100.00;101068.84;5033345;28;20124;-66
2023/11/03 04:48:49;;;;;;;4.00;3.57;;;;;;;0.17;100.00;101050.09;5033200;28;20082;-66
2023/11/03 04:51:15;;;;;;;5.33;3.50;;;;;;;0.06;100.00;101027.16;5033242;28;20283;-65
2023/11/03 04:53:42;;;;;;;3.97;3.57;;;;;;;0.21;100.00;101043.72;5032922;28;20284;-65
2023/11/03 04:56:08;;;;;;;3.90;3.23;;;;;;;0.18;100.00;101051.75;5033074;28;20030;-66
2023/11/03 04:58:34;;;;;;;8.97;3.90;;;;;;;0.14;100.00;101052.88;5032860;28;20260;-66
2023/11/03 05:00:59;;;;;;;4.20;3.37;;;;;;;0.06;100.00;101045.47;5031618;28;20260;-66
2023/11/03 05:03:25;;;;;;;4.60;3.70;;;;;;;0.19;100.00;101075.25;5032842;28;20518;-66
2023/11/03 05:05:50;;;;;;;6.20;3.27;;;;;;;0.16;100.00;101057.09;5032580;28;20530;-68
2023/11/03 05:08:16;;;;;;;6.93;3.53;;;;;;;0.12;100.00;101037.25;5032823;28;20040;-67
2023/11/03 05:10:42;;;;;;;6.13;3.67;;;;;;;0.26;100.00;101066.09;5034203;28;20045;-66
2023/11/03 05:13:08;;;;;;;4.47;3.60;;;;;;;0.21;100.00;101068.16;5034269;28;20041;-66
2023/11/03 05:15:34;;;;;;;4.50;3.10;;;;;;;0.19;100.00;101056.06;5034100;28;20033;-66
2023/11/03 05:18:00;;;;;;;7.80;3.60;;;;;;;0.16;100.00;101070.19;5036035;28;20489;-67
2023/11/03 05:20:26;;;;;;;9.17;6.17;;;;;;;0.09;100.00;101057.53;5034470;28;20322;-66
2023/11/03 05:22:52;;;;;;;12.73;5.73;;;;;;;0.13;100.00;101078.22;5032012;28;20339;-67
2023/11/03 05:25:19;;;;;;;9.53;5.00;;;;;;;-0.08;100.00;101040.16;5033823;28;20303;-68
2023/11/03 05:27:44;;;;;;;12.60;6.50;;;;;;;0.04;100.00;101049.97;5032582;28;20284;-65
2023/11/03 05:30:10;;;;;;;14.57;6.83;;;;;;;-0.10;100.00;101021.09;5033891;28;20272;-66
2023/11/03 05:32:36;;;;;;;13.17;7.07;;;;;;;0.22;100.00;101077.69;5032926;28;20124;-68
2023/11/03 05:35:03;;;;;;;12.53;5.80;;;;;;;-0.05;100.00;101019.91;5033378;28;20650;-65
2023/11/03 05:37:30;;;;;;;11.35;6.50;;;;;;;0.23;100.00;101074.13;5033539;28;20041;-68
2023/11/03 05:39:56;;;;;;;8.30;5.60;;;;;;;0.17;100.00;101056.16;5033509;28;20103;-68
2023/11/03 05:42:22;;;;;;;11.30;6.20;;;;;;;0.21;100.00;101062.91;5032078;28;20029;-67
2023/11/03 05:44:47;;;;;;;10.20;5.47;;;;;;;0.17;100.00;101053.53;5033070;28;20052;-68
2023/11/03 05:47:13;;;;;;;7.97;5.90;;;;;;;0.07;100.00;101055.03;5031881;28;20038;-66
2023/11/03 05:49:39;;;;;;;11.00;5.23;;;;;;;0.30;100.00;101083.34;5033031;28;20052;-68
2023/11/03 05:52:05;;;;;;;9.93;5.80;;;;;;;0.30;100.00;101072.88;5031674;28;20582;-65
2023/11/03 05:54:30;;;;;;;9.53;6.00;;;;;;;0.30;100.00;101070.25;5030616;28;20037;-67
2023/11/03 05:56:56;;;;;;;7.43;5.00;;;;;;;0.46;100.00;101085.06;5031795;28;20129;-67
2023/11/03 05:59:22;;;;;;;8.67;4.30;;;;;;;0.34;100.00;101063.06;5031783;28;20048;-69
2023/11/03 06:01:47;;;;;;;8.47;4.90;;;;;;;0.42;100.00;101070.47;5030184;28;20508;-67
2023/11/03 06:04:13;;;;;;;8.23;4.63;;;;;;;0.53;100.00;101086.38;5031649;28;20063;-67
2023/11/03 06:06:39;;;;;;;5.47;4.10;;;;;;;0.53;100.00;101089.00;5031854;28;20040;-65
2023/11/03 06:09:05;;;;;;;6.77;5.10;;;;;;;0.44;100.00;101082.53;5032041;28;20560;-68
2023/11/03 06:11:31;;;;;;;7.27;5.77;;;;;;;0.42;100.00;101079.16;5032013;28;20500;-66
2023/11/03 06:13:57;;;;;;;12.60;5.93;;;;;;;0.15;100.00;101037.06;5031562;28;20260;-64
2023/11/03 06:16:22;;;;;;;17.13;5.63;;;;;;;0.42;100.00;101088.78;5030599;28;20044;-68
2023/11/03 06:18:49;;;;;;;9.47;4.10;;;;;;;0.35;100.00;101074.38;5032033;28;20044;-66
2023/11/03 06:21:15;;;;;;;5.33;4.13;;;;;;;0.36;100.00;101066.44;5032015;28;20284;-68
2023/11/03 06:23:40;;;;;;;6.10;4.30;;;;;;;0.43;100.00;101072.97;5031673;28;20287;-66
2023/11/03 06:26:06;;;;;;;8.53;4.10;;;;;;;0.56;100.00;101099.28;5031815;28;20045;-66
2023/11/03 06:28:33;;;;;;;5.83;4.30;;;;;;;0.37;100.00;101056.78;5031928;28;20048;-67
2023/11/03 06:30:59;;;;;;;8.30;4.00;;;;;;;0.61;100.00;101086.78;5031278;28;20260;-67
2023/11/03 06:33:24;;;;;;;6.63;4.50;;;;;;;0.60;100.00;101083.31;5031317;28;20366;-65
2023/11/03 06:35:50;;;;;;;8.53;4.43;;;;;;;0.54;100.00;101072.34;5030957;28;20634;-66
2023/11/03 06:38:16;;;;;;;7.20;4.33;;;;;;;0.35;100.00;101048.19;5032009;28;20046;-67
2023/11/03 06:40:43;;;;;;;9.93;4.80;;;;;;;0.45;100.00;101054.53;5032217;28;20048;-67
2023/11/03 06:43:08;;;;;;;9.50;6.33;;;;;;;0.45;100.00;101063.25;5032896;28;20275;-66
2023/11/03 06:45:34;;;;;;;6.73;4.37;;;;;;;0.54;100.00;101064.47;5032499;28;20295;-66
2023/11/03 06:48:00;;;;;;;8.97;4.47;;;;;;;0.66;100.00;101074.25;5032571;28;20112;-66
2023/11/03 06:50:27;;;;;;;5.53;4.17;;;;;;;0.80;100.00;101076.88;5030846;28;20037;-68
2023/11/03 06:52:54;;;;;;;8.10;4.63;;;;;;;0.65;100.00;101054.22;5030776;28;20034;-65
2023/11/03 06:55:21;;;;;;;6.53;4.90;;;;;;;0.64;100.00;101047.28;5031968;28;20292;-67
2023/11/03 06:57:48;;;;;;;7.00;4.57;;;;;;;0.65;100.00;101051.59;5030996;28;20272;-66
2023/11/03 07:00:14;;;;;;;10.67;4.70;;;;;;;0.78;100.00;101065.63;5031966;28;20862;-67
2023/11/03 07:02:42;;;;;;;7.33;5.53;;;;;;;0.91;100.00;101089.34;5036718;28;20303;-67
2023/11/03 07:05:13;;;;;;;5.90;4.53;;;;;;;0.92;100.00;101077.94;5037411;28;20402;-68
2023/11/03 07:07:45;;;;;;;6.53;4.87;;;;;;;1.06;100.00;101092.81;5038654;28;20367;-68
2023/11/03 07:10:12;;;;;;;5.80;4.53;;;;;;;1.20;100.00;101087.56;5038871;28;20264;-66
2023/11/03 07:12:38;;;;;;;6.83;5.17;;;;;;;1.19;100.00;101094.59;5035631;28;20283;-63
2023/11/03 07:15:06;;;;;;;4.83;3.97;;;;;;;1.07;100.00;101094.50;5037673;28;20061;-68
2023/11/03 07:17:38;;;;;;;6.73;4.60;;;;;;;1.21;100.00;101105.00;5038942;28;20272;-66
2023/11/03 07:20:05;;;;;;;9.98;5.38;;;;;;;1.17;100.00;101106.97;5040538;28;20272;-64
2023/11/03 07:22:36;;;;;;;6.43;4.63;;;;;;;1.11;100.00;101098.59;5041286;28;20066;-65
2023/11/03 07:25:05;;;;;;;7.00;4.90;;;;;;;1.06;100.00;101096.28;5023299;28;20304;-66
2023/11/03 07:27:34;;;;;;;6.90;5.27;;;;;;;0.98;100.00;101092.44;5041079;28;20299;-67
2023/11/03 07:30:06;;;;;;;7.97;5.07;;;;;;;1.10;100.00;101107.41;5037318;28;20332;-67
2023/11/03 07:32:33;;;;;;;10.13;5.20;;;;;;;1.03;100.00;101080.72;5024614;28;20834;-68
2023/11/03 07:35:03;;;;;;;8.52;4.60;;;;;;;1.29;100.00;101115.84;5037927;28;20279;-67
2023/11/03 07:37:30;;;;;;;5.90;4.97;;;;;;;1.33;100.00;101117.34;5036409;28;20044;-66
2023/11/03 07:40:06;;;;;;;8.57;5.60;;;;;;;1.31;100.00;101121.84;5017457;28;20037;-68
2023/11/03 07:42:58;;;;;;;6.73;4.80;;;;;;;1.28;100.00;101122.03;5007390;28;20279;-68
2023/11/03 07:45:24;;;;;;;8.67;5.10;;;;;;;1.27;100.00;101127.38;5030685;28;20771;-67
2023/11/03 07:47:50;;;;;;;6.07;5.10;;;;;;;1.23;100.00;101111.00;5034522;28;20279;-66
2023/11/03 07:50:18;;;;;;;9.03;4.97;;;;;;;1.33;100.00;101091.09;5035250;28;20519;-66
2023/11/03 07:52:44;;;;;;;7.57;5.57;;;;;;;1.57;100.00;101125.50;5016654;28;20620;-67
2023/11/03 07:55:15;;;;;;;10.03;5.27;;;;;;;1.50;100.00;101101.41;5034826;28;20264;-67
2023/11/03 07:57:44;;;;;;;7.67;5.53;;;;;;;1.76;100.00;101131.28;5035540;28;20060;-68
2023/11/03 08:00:12;;;;;;;9.38;5.93;;;;;;;1.85;100.00;101127.22;5036116;28;20279;-65
2023/11/03 08:02:38;;;;;;;10.55;5.60;;;;;;;1.96;100.00;101116.00;5038808;28;20044;-68
2023/11/03 08:05:07;;;;;;;10.67;4.83;;;;;;;2.07;99.93;101127.53;5033812;28;20037;-67
2023/11/03 08:07:35;;;;;;;7.80;5.07;;;;;;;2.01;100.00;101125.28;5034427;28;20261;-68
2023/11/03 08:10:01;;;;;;;9.70;5.37;;;;;;;1.95;100.00;101115.16;5035327;28;20769;-68
2023/11/03 08:12:27;;;;;;;6.37;5.10;;;;;;;2.08;100.00;101138.88;5035326;28;20264;-67
2023/11/03 08:14:55;;;;;;;6.57;5.33;;;;;;;1.88;100.00;101111.25;5033939;28;20278;-68
2023/11/03 08:17:25;;;;;;;8.87;4.90;;;;;;;2.10;100.00;101150.13;5035450;28;20049;-70
2023/11/03 08:19:52;;;;;;;6.93;5.67;;;;;;;2.16;100.00;101153.19;5033993;28;20268;-68
2023/11/03 08:22:18;;;;;;;13.17;6.53;;;;;;;2.14;100.00;101147.19;5033960;28;20300;-67
2023/11/03 08:25:36;;;;;;;11.87;5.57;;;;;;;2.17;100.00;101152.25;5019912;28;20312;-66
2023/11/03 08:28:03;;;;;;;8.50;5.70;;;;;;;1.63;100.00;101100.63;5038377;28;20268;-69
2023/11/03 08:30:41;;;;;;;11.17;6.07;;;;;;;1.88;100.00;101155.91;5037421;28;20291;-66
2023/11/03 08:33:13;;;;;;;7.73;6.30;;;;;;;1.66;100.00;101121.44;5035180;28;20767;-69
2023/11/03 08:35:48;;;;;;;10.17;6.53;;;;;;;1.93;100.00;101169.59;5032431;28;20288;-68
2023/11/03 08:38:15;;;;;;;11.00;7.70;;;;;;;1.11;100.00;101022.53;5032052;28;20280;-68
2023/11/03 08:41:09;;;;;;;12.00;7.77;;;;;;;1.24;100.00;101020.84;5031732;28;20264;-69
2023/11/03 08:43:40;;;;;;;9.73;6.53;;;;;;;2.12;100.00;101170.09;5022291;28;20276;-68
2023/11/03 08:46:06;;;;;;;8.80;6.33;;;;;;;2.30;100.00;101177.72;5033018;28;20296;-68
2023/11/03 08:48:32;;;;;;;12.60;7.53;;;;;;;2.34;100.00;101181.88;5033427;28;20747;-67
2023/11/03 08:50:58;;;;;;;10.40;6.37;;;;;;;2.31;100.00;101174.16;5034693;28;20314;-68
2023/11/03 08:53:28;;;;;;;9.57;7.40;;;;;;;2.33;100.00;101177.56;5034179;28;20038;-69
2023/11/03 08:55:56;;;;;;;13.33;7.17;;;;;;;2.35;100.00;101168.63;5034171;28;20276;-68
2023/11/03 08:58:22;;;;;;;8.65;6.82;;;;;;;2.25;100.00;101154.38;5032630;28;20315;-66
2023/11/03 09:00:51;;;;;;;10.33;6.97;;;;;;;2.33;100.00;101161.78;5016863;28;20107;-67
2023/11/03 09:03:19;;;;;;;13.98;7.05;;;;;;;2.18;100.00;101142.59;5034541;28;20771;-68
2023/11/03 09:05:47;;;;;;;9.93;6.93;;;;;;;2.24;100.00;101141.34;5033164;28;20045;-69
2023/11/03 09:08:13;;;;;;;9.37;6.60;;;;;;;2.31;100.00;101161.00;5015947;28;20272;-69
2023/11/03 09:10:40;;;;;;;10.53;7.10;;;;;;;2.20;100.00;101139.84;5039543;28;20279;-68
2023/11/03 09:13:07;;;;;;;10.47;6.33;;;;;;;2.20;100.00;101134.59;5035605;28;20415;-67
2023/11/03 09:15:32;;;;;;;11.17;7.27;;;;;;;2.15;100.00;101133.13;5033285;28;20276;-69
2023/11/03 09:17:58;;;;;;;9.10;7.70;;;;;;;2.06;100.00;101120.59;5032934;28;20071;-68
2023/11/03 09:20:24;;;;;;;9.67;6.37;;;;;;;2.22;100.00;101132.72;5032532;28;20526;-69
2023/11/03 09:22:49;;;;;;;10.17;7.07;;;;;;;2.00;100.00;101102.56;5032960;28;20053;-67
2023/11/03 09:25:16;;;;;;;10.70;6.40;;;;;;;2.28;100.00;101134.94;5033318;28;20103;-69
2023/11/03 09:27:41;;;;;;;14.17;7.33;;;;;;;2.30;100.00;101110.22;5032553;28;20271;-67
2023/11/03 09:30:10;;;;;;;9.00;6.30;;;;;;;2.13;100.00;101069.31;5031531;28;20616;-66
2023/11/03 09:32:37;;;;;;;15.57;7.93;;;;;;;2.55;100.00;101122.59;5033011;28;20037;-67
2023/11/03 09:35:04;;;;;;;13.03;7.40;;;;;;;2.61;100.00;101143.25;5032558;28;20073;-67
2023/11/03 09:37:30;;;;;;;10.33;6.77;;;;;;;2.66;100.00;101135.88;5032366;28;20272;-66
2023/11/03 09:39:57;;;;;;;8.93;6.50;;;;;;;2.72;100.00;101130.22;5031861;28;20276;-67
2023/11/03 09:42:24;;;;;;;12.10;7.30;;;;;;;2.79;100.00;101120.13;5031337;28;20413;-68
2023/11/03 09:44:50;;;;;;;7.90;6.43;;;;;;;2.98;100.00;101138.13;5032328;28;20299;-65
2023/11/03 09:47:16;;;;;;;11.70;6.83;;;;;;;3.11;100.00;101154.75;5030952;28;20772;-68
2023/11/03 09:49:43;;;;;;;12.97;6.67;;;;;;;3.07;100.00;101132.22;5032194;28;20312;-66
2023/11/03 09:52:13;;;;;;;10.47;6.43;;;;;;;3.01;100.00;101101.94;5032528;28;20037;-66
2023/11/03 09:54:41;;;;;;;8.07;6.17;;;;;;;3.05;100.00;101128.88;5032668;28;20391;-67
2023/11/03 09:57:09;;;;;;;11.98;6.90;;;;;;;2.96;100.00;101140.03;5031636;28;20371;-64
2023/11/03 09:59:38;;;;;;;9.95;7.78;;;;;;;2.62;100.00;101092.34;5032239;28;20061;-65
2023/11/03 10:02:21;;;;;;;9.82;6.72;;;;;;;2.95;100.00;101117.31;5032182;28;20033;-65
2023/11/03 10:04:47;;;;;;;9.30;6.07;;;;;;;3.17;100.00;101150.84;5032962;28;20045;-65
2023/11/03 10:07:13;;;;;;;12.03;7.97;;;;;;;3.10;100.00;101134.66;5032054;28;20350;-65
2023/11/03 10:09:40;;;;;;;13.63;7.30;;;;;;;3.15;100.00;101139.59;5030783;28;20496;-68
2023/11/03 10:12:15;;;;;;;8.93;6.83;;;;;;;3.22;100.00;101140.88;5031902;28;20272;-65
2023/11/03 10:14:43;;;;;;;14.70;6.37;;;;;;;3.13;100.00;101137.06;5031900;28;20594;-65
2023/11/03 10:17:09;;;;;;;8.70;6.00;;;;;;;3.04;100.00;101122.75;5030782;28;20280;-68
2023/11/03 10:19:36;;;;;;;12.07;7.30;;;;;;;2.93;100.00;101092.88;5031873;28;20275;-68
2023/11/03 10:22:08;;;;;;;8.93;6.13;;;;;;;3.28;100.00;101140.44;5029938;28;20287;-64
2023/11/03 10:24:39;;;;;;;8.97;6.57;;;;;;;2.88;100.00;101060.75;5031751;28;20398;-66
2023/11/03 10:27:06;;;;;;;12.17;6.10;;;;;;;3.35;100.00;101141.69;5032004;28;20787;-68
2023/11/03 10:29:32;;;;;;;9.47;5.70;;;;;;;3.21;100.00;101116.34;5032891;28;20276;-68
2023/11/03 10:31:58;;;;;;;10.73;5.83;;;;;;;3.24;100.00;101110.88;5032789;28;20688;-67
2023/11/03 10:34:25;;;;;;;9.57;6.00;;;;;;;3.27;100.00;101121.19;5033698;28;20272;-68
2023/11/03 10:36:55;;;;;;;7.00;6.13;;;;;;;2.23;100.00;100940.78;5032275;28;20064;-68
2023/11/03 10:39:20;;;;;;;8.33;5.03;;;;;;;3.37;100.00;101108.19;5032149;28;20264;-69
2023/11/03 10:41:49;;;;;;;7.97;5.43;;;;;;;3.42;100.00;101112.19;5033265;28;20275;-68
2023/11/03 10:44:16;;;;;;;8.60;5.90;;;;;;;3.45;100.00;101112.91;5012900;28;20519;-66
2023/11/03 10:46:57;;;;;;;11.23;5.73;;;;;;;3.51;100.00;101110.72;5031462;28;20260;-68
2023/11/03 10:49:34;;;;;;;8.27;5.87;;;;;;;3.58;100.00;101100.59;5030075;28;20276;-67
2023/11/03 10:52:14;;;;;;;9.97;5.93;;;;;;;3.47;100.00;101080.28;5031256;28;20333;-65
2023/11/03 10:55:06;;;;;;;7.13;6.03;;;;;;;3.67;100.00;101098.13;5031799;28;20260;-65
2023/11/03 10:57:32;;;;;;;13.77;6.80;;;;;;;3.63;100.00;101085.28;5031934;28;20279;-69
2023/11/03 11:00:17;;;;;;;9.60;6.50;;;;;;;3.69;100.00;101095.38;5034607;28;20284;-65
2023/11/03 11:02:54;;;;;;;11.83;6.17;;;;;;;3.53;100.00;101063.22;5044896;28;20087;-67
2023/11/03 11:05:30;;;;;;;12.53;6.13;;;;;;;3.59;100.00;101075.94;5030939;28;20386;-66
2023/11/03 11:08:01;;;;;;;9.67;6.40;;;;;;;3.64;100.00;101079.06;5031653;28;20746;-65
2023/11/03 11:10:41;;;;;;;8.47;5.77;;;;;;;3.62;100.00;101059.91;5031006;28;20355;-67
2023/11/03 11:13:18;;;;;;;12.30;6.47;;;;;;;3.60;100.00;101062.66;5030819;28;20264;-66
2023/11/03 11:15:56;;;;;;;8.63;5.67;;;;;;;3.50;100.00;101048.47;5031035;28;20621;-68
2023/11/03 11:18:22;;;;;;;7.17;5.13;;;;;;;3.60;100.00;101054.75;5030826;28;20267;-67
2023/11/03 11:20:52;;;;;;;8.13;5.23;;;;;;;3.49;100.00;101040.69;5031391;28;20270;-67
2023/11/03 11:23:22;;;;;;;10.50;5.80;;;;;;;3.52;100.00;101045.72;5035051;28;20283;-66